Skip to main content

NOAA/GLERL Met Station at Michigan City, IN

Previous 3 Hours (2 minute increments)
See also Previous 5 Days (top of hour)
Jump down to Data
Switch to [English][Metric]
Zoom: Click and drag, Pan: shift-click and drag, Unzoom: double-click, Unzoom All






See also 1-day windrose plot


NOAA/GLERL Met Station at Michigan City, IN

Previous 3 Hours (2 minute increments)
See also Previous 5 Days (top of hour only)
Jump up to Graphs
Switch to [English][Metric]
                  Wind  Wind  Wind   Air   Dew   Rel     Sta   PAR
                   Spd   Gst   Dir  Temp    Pt   Hum    Pres uE/m2/
YYYY-MM-DD   CDT   m/s   m/s   deg     C     C     %      mb   sec
2024-06-15 15:06   5.7   7.3   204  27.0  11.6  37.6  994.80   654
2024-06-15 15:04   5.1   6.6   206  27.0  11.7  37.9  994.90   654
2024-06-15 15:02   6.5   8.2   216  26.9  11.4  37.3  994.90   689
2024-06-15 15:00   6.1   8.4   211  26.9  11.3  37.2  994.70   784
2024-06-15 14:58   6.9   7.9   216  27.0  11.2  36.8  994.70   818
2024-06-15 14:56   4.7   7.6   188  27.0  11.6  37.7  994.80   920
2024-06-15 14:54   4.8   6.3   188  27.0  11.6  37.7  994.90  1043
2024-06-15 14:52   4.6   6.2   204  27.0  11.4  37.1  995.00  1132
2024-06-15 14:50   4.0   5.3   226  26.9  11.0  36.3  995.10  1145
2024-06-15 14:48   4.7   6.7   233  26.9  11.1  36.7  995.00  1084
2024-06-15 14:46   6.7   7.8   228  26.9  11.1  36.6  995.00  1098
2024-06-15 14:44   5.7   7.4   214  26.8  11.6  38.1  994.90  1138
2024-06-15 14:42   6.3   7.8   206  26.9  11.7  38.2  994.90  1159
2024-06-15 14:40   6.3   7.3   204  26.9  11.8  38.5  995.00  1070
2024-06-15 14:38   5.2   7.3   212  26.9  11.5  37.6  995.00  1248
2024-06-15 14:36   5.9   7.9   216  26.9  11.4  37.3  995.10  1309
2024-06-15 14:34   5.3   7.3   229  26.9  11.6  37.9  995.10  1159
2024-06-15 14:32   6.1   8.3   193  26.8  11.4  37.6  995.10  1200
2024-06-15 14:30   5.8   7.7   224  26.8  11.6  38.2  995.10  1173
2024-06-15 14:28   5.1   6.4   237  26.9  11.8  38.3  995.10  1111
2024-06-15 14:26   5.4   6.9   224  26.9  11.9  38.7  995.10  1016
2024-06-15 14:24   4.7   5.7   205  26.7  11.8  38.9  995.00  1118
2024-06-15 14:22   5.6   7.7   202  26.6  11.6  38.5  995.00  1200
2024-06-15 14:20   6.7   8.3   206  26.6  11.5  38.3  994.90  1302
2024-06-15 14:18   6.1   7.7   199  26.5  11.6  38.7  995.00  1309
2024-06-15 14:16   4.9   6.3   234  26.4  11.5  38.7  995.10  1452
2024-06-15 14:14   6.1   7.9   226  26.5  11.4  38.4  995.00  1452
2024-06-15 14:12   5.0   6.3   203  26.6  11.6  38.6  995.10  1425
2024-06-15 14:10   5.9   8.7   206  26.5  11.5  38.6  995.00  1350
2024-06-15 14:08   6.0   7.3   239  26.4  11.3  38.2  995.30  1350
2024-06-15 14:06   6.1   7.6   219  26.3  11.3  38.5  995.20  1418
2024-06-15 14:04   8.0   9.4   221  26.4  11.2  38.0  995.20  1486
2024-06-15 14:02   6.0   9.3   217  26.6  11.7  38.9  995.20  1466
2024-06-15 14:00   5.8   6.9   203  26.4  11.7  39.2  995.00  1500
2024-06-15 13:58   4.9   6.7   183  26.3  11.9  40.0  995.00  1568
2024-06-15 13:56   5.4   7.3   201  26.4  11.8  39.5  995.10  1609
2024-06-15 13:54   6.3   8.2   191  26.4  11.5  38.8  995.00  1616
2024-06-15 13:52   5.0   6.2   192  26.4  11.8  39.6  995.10  1657
2024-06-15 13:50   4.8   6.4   220  26.1  11.5  39.5  995.20  1541
2024-06-15 13:48   7.1   8.5   220  26.1  11.4  39.2  995.20  1166
2024-06-15 13:46   5.5   7.4   225  26.2  11.4  39.0  995.30  1261
2024-06-15 13:44   5.3   6.6   223  26.3  11.6  39.2  995.20  1234
2024-06-15 13:42   6.4   7.5   222  26.2  11.5  39.2  995.20  1241
2024-06-15 13:40   5.6   6.5   212  26.0  11.3  39.3  995.20  1547
2024-06-15 13:38   6.7   8.7   223  26.0  11.3  39.2  995.40  1663
2024-06-15 13:36   7.3   9.0   223  26.0  11.1  38.7  995.40  1800
2024-06-15 13:34   7.1   8.8   215  26.0  11.3  39.1  995.40  1595
2024-06-15 13:32   5.3   6.7   204  26.1  11.8  40.2  995.40  1595
2024-06-15 13:30   4.8   5.9   231  26.0  11.4  39.4  995.30  1629
2024-06-15 13:28   5.9   6.6   224  26.0  11.6  40.1  995.30  1493
2024-06-15 13:26   7.0   9.1   217  25.8  11.3  39.7  995.30  1629
2024-06-15 13:24   5.3   6.6   199  25.8  11.7  40.9  995.30  1636
2024-06-15 13:22   5.3   6.8   205  25.8  11.9  41.3  995.40  1595
2024-06-15 13:20   5.6   8.2   192  25.9  11.9  41.0  995.40  1589
2024-06-15 13:18   5.4   7.6   186  25.8  11.8  41.0  995.30  1623
2024-06-15 13:16   6.0   8.0   189  25.8  11.8  41.0  995.30  1616
2024-06-15 13:14   5.7   7.4   193  25.7  11.8  41.3  995.40  1507
2024-06-15 13:12   6.7   8.0   195  25.6  11.7  41.3  995.40  1487
2024-06-15 13:10   6.9   7.9   218  25.5  11.7  41.5  995.60  1623
2024-06-15 13:08   5.5   7.2   204  25.6  11.7  41.2  995.50  1500
2024-06-15 13:06   7.2   9.2   208  25.6  11.4  40.5  995.50  1330
2024-06-15 13:04   5.6   7.9   208  25.6  11.7  41.4  995.70  1371
2024-06-15 13:02   5.8   7.4   204  25.5  11.7  41.4  995.70  1282
2024-06-15 13:00   6.8   8.5   194  25.4  11.4  41.0  995.50  1180
2024-06-15 12:58   6.5   8.4   192  25.6  11.6  41.1  995.60  1091
2024-06-15 12:56   6.2   7.7   216  25.4  11.7  41.8  995.70  1037
2024-06-15 12:54   6.1   7.3   225  25.3  11.4  41.3  995.80  1146
2024-06-15 12:52   6.5   8.3   224  25.4  11.5  41.3  995.80  1187
2024-06-15 12:50   7.0   8.6   214  25.6  11.4  40.5  995.80  1255
2024-06-15 12:48   4.5   7.9   214  25.4  11.9  42.4  995.90  1200
2024-06-15 12:46   5.4   8.8   211  25.3  11.5  41.4  995.90  1282
2024-06-15 12:44   6.1   7.6   191  25.3  11.4  41.1  995.90  1316
2024-06-15 12:42   7.2   8.3   196  25.4  11.3  40.8  995.90  1459
2024-06-15 12:40   6.3   8.3   199  25.4  11.5  41.1  995.90  1453
2024-06-15 12:38   5.5   7.0   209  25.4  11.6  41.6  996.00  1473
2024-06-15 12:36   6.9   8.9   198  25.3  11.3  41.0  996.00  1405
2024-06-15 12:34   4.4   6.3   209  25.1  11.5  42.0  996.10  1446
2024-06-15 12:32   6.1   7.7   218  25.1  11.1  40.9  996.20  1582
2024-06-15 12:30   6.0   7.8   199  25.1  11.1  40.8  996.00  1617
2024-06-15 12:28   7.1   8.9   207  25.1  11.1  40.8  996.00  1541
2024-06-15 12:26   6.7   8.7   204  25.1  11.1  40.8  996.00  1432
2024-06-15 12:24   5.3   7.6   201  25.0  11.2  41.4  996.00  1310
2024-06-15 12:22   7.0   8.1   192  25.0  10.9  40.6  996.00  1166
2024-06-15 12:20   5.7   7.1   203  24.9  10.9  40.8  996.00  1330
2024-06-15 12:18   6.4   7.5   203  24.9  10.8  40.6  996.00  1637
2024-06-15 12:16   6.7   8.0   212  24.8  10.9  41.0  996.00  1603
2024-06-15 12:14   7.8   9.2   220  24.7  10.7  40.7  996.00  1630
2024-06-15 12:12   8.4   9.8   200  24.8  10.8  40.8  996.00  1610
2024-06-15 12:10   6.7   8.4   200  24.6  10.8  41.4  996.10  1630
2024-06-15 12:08   7.2   9.3   214  24.6  10.5  40.6  996.10  1351
2024-06-15 12:06   7.4   8.6   202  24.7  10.7  40.7  996.10  1364